sensor_id;sensor_type;location;lat;lon;timestamp;P1;durP1;ratioP1;P2;durP2;ratioP2
77944;SDS011;67142;47.404;-1.384;2023-03-30T00:02:17;15.50;;;11.27;;
77944;SDS011;67142;47.404;-1.384;2023-03-30T00:04:46;13.23;;;11.93;;
77944;SDS011;67142;47.404;-1.384;2023-03-30T00:07:12;13.52;;;10.95;;
77944;SDS011;67142;47.404;-1.384;2023-03-30T00:09:39;17.87;;;11.87;;
77944;SDS011;67142;47.404;-1.384;2023-03-30T00:12:06;13.63;;;11.00;;
77944;SDS011;67142;47.404;-1.384;2023-03-30T00:14:32;13.02;;;11.63;;
77944;SDS011;67142;47.404;-1.384;2023-03-30T00:17:04;13.82;;;10.93;;
77944;SDS011;67142;47.404;-1.384;2023-03-30T00:19:31;13.93;;;11.15;;
77944;SDS011;67142;47.404;-1.384;2023-03-30T00:21:58;14.43;;;11.47;;
77944;SDS011;67142;47.404;-1.384;2023-03-30T00:24:24;16.60;;;11.68;;
77944;SDS011;67142;47.404;-1.384;2023-03-30T00:26:50;12.73;;;11.43;;
77944;SDS011;67142;47.404;-1.384;2023-03-30T00:29:16;17.90;;;11.77;;
77944;SDS011;67142;47.404;-1.384;2023-03-30T00:31:42;14.57;;;12.05;;
77944;SDS011;67142;47.404;-1.384;2023-03-30T00:34:08;13.63;;;12.23;;
77944;SDS011;67142;47.404;-1.384;2023-03-30T00:36:34;16.17;;;11.82;;
77944;SDS011;67142;47.404;-1.384;2023-03-30T00:39:02;16.92;;;11.30;;
77944;SDS011;67142;47.404;-1.384;2023-03-30T00:41:30;16.35;;;11.55;;
77944;SDS011;67142;47.404;-1.384;2023-03-30T00:44:00;13.63;;;10.93;;
77944;SDS011;67142;47.404;-1.384;2023-03-30T00:46:27;16.47;;;11.67;;
77944;SDS011;67142;47.404;-1.384;2023-03-30T00:48:55;14.30;;;11.30;;
77944;SDS011;67142;47.404;-1.384;2023-03-30T00:51:22;18.80;;;11.00;;
77944;SDS011;67142;47.404;-1.384;2023-03-30T00:53:49;17.15;;;11.63;;
77944;SDS011;67142;47.404;-1.384;2023-03-30T00:56:16;17.10;;;11.88;;
77944;SDS011;67142;47.404;-1.384;2023-03-30T00:58:44;17.37;;;11.70;;
77944;SDS011;67142;47.404;-1.384;2023-03-30T01:01:11;20.33;;;11.73;;
77944;SDS011;67142;47.404;-1.384;2023-03-30T01:03:40;14.57;;;11.77;;
77944;SDS011;67142;47.404;-1.384;2023-03-30T01:06:07;17.60;;;11.52;;
77944;SDS011;67142;47.404;-1.384;2023-03-30T01:08:34;18.55;;;12.05;;
77944;SDS011;67142;47.404;-1.384;2023-03-30T01:11:01;18.70;;;12.23;;
77944;SDS011;67142;47.404;-1.384;2023-03-30T01:13:28;15.65;;;12.25;;
77944;SDS011;67142;47.404;-1.384;2023-03-30T01:26:33;16.45;;;12.88;;
77944;SDS011;67142;47.404;-1.384;2023-03-30T01:29:09;21.08;;;12.93;;
77944;SDS011;67142;47.404;-1.384;2023-03-30T01:46:58;19.75;;;12.88;;
77944;SDS011;67142;47.404;-1.384;2023-03-30T01:49:40;20.57;;;12.80;;
77944;SDS011;67142;47.404;-1.384;2023-03-30T01:52:14;16.20;;;12.07;;
77944;SDS011;67142;47.404;-1.384;2023-03-30T01:54:45;16.92;;;12.02;;
77944;SDS011;67142;47.404;-1.384;2023-03-30T01:57:14;18.10;;;11.95;;
77944;SDS011;67142;47.404;-1.384;2023-03-30T02:02:17;18.47;;;12.30;;
77944;SDS011;67142;47.404;-1.384;2023-03-30T02:04:43;18.17;;;12.30;;
77944;SDS011;67142;47.404;-1.384;2023-03-30T02:07:13;22.77;;;11.80;;
77944;SDS011;67142;47.404;-1.384;2023-03-30T02:09:40;19.77;;;12.25;;
77944;SDS011;67142;47.404;-1.384;2023-03-30T02:12:07;21.27;;;11.80;;
77944;SDS011;67142;47.404;-1.384;2023-03-30T02:14:34;23.57;;;12.07;;
77944;SDS011;67142;47.404;-1.384;2023-03-30T02:17:06;23.13;;;12.43;;
77944;SDS011;67142;47.404;-1.384;2023-03-30T02:19:32;24.77;;;12.07;;
77944;SDS011;67142;47.404;-1.384;2023-03-30T02:21:59;24.05;;;12.57;;
77944;SDS011;67142;47.404;-1.384;2023-03-30T02:24:26;18.80;;;13.18;;
77944;SDS011;67142;47.404;-1.384;2023-03-30T02:26:54;24.67;;;13.15;;
77944;SDS011;67142;47.404;-1.384;2023-03-30T02:29:20;24.00;;;12.13;;
77944;SDS011;67142;47.404;-1.384;2023-03-30T02:31:47;20.40;;;12.20;;
77944;SDS011;67142;47.404;-1.384;2023-03-30T02:39:37;26.73;;;12.57;;
77944;SDS011;67142;47.404;-1.384;2023-03-30T02:44:34;27.40;;;11.88;;
77944;SDS011;67142;47.404;-1.384;2023-03-30T02:47:07;28.08;;;12.52;;
77944;SDS011;67142;47.404;-1.384;2023-03-30T02:54:31;29.30;;;12.20;;
77944;SDS011;67142;47.404;-1.384;2023-03-30T02:57:07;28.10;;;13.32;;
77944;SDS011;67142;47.404;-1.384;2023-03-30T02:59:45;29.52;;;13.93;;
77944;SDS011;67142;47.404;-1.384;2023-03-30T03:02:27;27.60;;;13.43;;
77944;SDS011;67142;47.404;-1.384;2023-03-30T03:04:56;32.10;;;12.80;;
77944;SDS011;67142;47.404;-1.384;2023-03-30T03:07:22;27.88;;;13.45;;
77944;SDS011;67142;47.404;-1.384;2023-03-30T03:09:49;33.45;;;14.02;;
77944;SDS011;67142;47.404;-1.384;2023-03-30T03:12:15;38.00;;;14.43;;
77944;SDS011;67142;47.404;-1.384;2023-03-30T03:14:41;28.57;;;13.63;;
77944;SDS011;67142;47.404;-1.384;2023-03-30T03:17:09;24.57;;;12.17;;
77944;SDS011;67142;47.404;-1.384;2023-03-30T03:19:37;26.70;;;13.60;;
77944;SDS011;67142;47.404;-1.384;2023-03-30T03:22:03;30.88;;;13.40;;
77944;SDS011;67142;47.404;-1.384;2023-03-30T03:24:29;30.10;;;13.00;;
77944;SDS011;67142;47.404;-1.384;2023-03-30T03:26:57;27.80;;;12.88;;
77944;SDS011;67142;47.404;-1.384;2023-03-30T03:29:24;35.43;;;14.80;;
77944;SDS011;67142;47.404;-1.384;2023-03-30T03:31:50;32.40;;;14.25;;
77944;SDS011;67142;47.404;-1.384;2023-03-30T03:34:17;31.67;;;13.13;;
77944;SDS011;67142;47.404;-1.384;2023-03-30T03:36:44;34.63;;;14.13;;
77944;SDS011;67142;47.404;-1.384;2023-03-30T03:39:10;31.00;;;12.83;;
77944;SDS011;67142;47.404;-1.384;2023-03-30T03:41:36;30.37;;;13.33;;
77944;SDS011;67142;47.404;-1.384;2023-03-30T03:44:02;28.42;;;13.50;;
77944;SDS011;67142;47.404;-1.384;2023-03-30T03:46:28;31.90;;;13.70;;
77944;SDS011;67142;47.404;-1.384;2023-03-30T03:48:54;34.60;;;14.45;;
77944;SDS011;67142;47.404;-1.384;2023-03-30T03:51:20;33.28;;;13.75;;
77944;SDS011;67142;47.404;-1.384;2023-03-30T03:53:47;42.95;;;14.07;;
77944;SDS011;67142;47.404;-1.384;2023-03-30T03:56:13;25.13;;;13.35;;
77944;SDS011;67142;47.404;-1.384;2023-03-30T03:58:39;37.42;;;14.32;;
77944;SDS011;67142;47.404;-1.384;2023-03-30T04:01:05;39.90;;;14.77;;
77944;SDS011;67142;47.404;-1.384;2023-03-30T04:03:31;35.30;;;14.40;;
77944;SDS011;67142;47.404;-1.384;2023-03-30T04:05:58;26.77;;;13.33;;
77944;SDS011;67142;47.404;-1.384;2023-03-30T04:08:25;31.15;;;14.45;;
77944;SDS011;67142;47.404;-1.384;2023-03-30T04:10:52;35.65;;;13.38;;
77944;SDS011;67142;47.404;-1.384;2023-03-30T04:13:18;34.92;;;14.20;;
77944;SDS011;67142;47.404;-1.384;2023-03-30T04:15:45;34.75;;;14.23;;
77944;SDS011;67142;47.404;-1.384;2023-03-30T04:18:11;35.60;;;14.40;;
77944;SDS011;67142;47.404;-1.384;2023-03-30T04:20:39;35.08;;;14.63;;
77944;SDS011;67142;47.404;-1.384;2023-03-30T04:23:05;35.58;;;12.80;;
77944;SDS011;67142;47.404;-1.384;2023-03-30T04:25:33;36.60;;;14.18;;
77944;SDS011;67142;47.404;-1.384;2023-03-30T04:28:00;29.35;;;13.15;;
77944;SDS011;67142;47.404;-1.384;2023-03-30T04:30:29;41.60;;;14.38;;
77944;SDS011;67142;47.404;-1.384;2023-03-30T04:32:55;40.97;;;14.43;;
77944;SDS011;67142;47.404;-1.384;2023-03-30T04:35:30;36.75;;;13.43;;
77944;SDS011;67142;47.404;-1.384;2023-03-30T04:37:57;37.75;;;13.40;;
77944;SDS011;67142;47.404;-1.384;2023-03-30T04:40:24;38.85;;;13.63;;
77944;SDS011;67142;47.404;-1.384;2023-03-30T04:42:50;40.97;;;13.30;;
77944;SDS011;67142;47.404;-1.384;2023-03-30T04:45:16;41.17;;;13.10;;
77944;SDS011;67142;47.404;-1.384;2023-03-30T04:47:43;43.08;;;14.18;;
77944;SDS011;67142;47.404;-1.384;2023-03-30T04:50:10;40.95;;;14.30;;
77944;SDS011;67142;47.404;-1.384;2023-03-30T04:52:36;37.05;;;13.00;;
77944;SDS011;67142;47.404;-1.384;2023-03-30T04:55:02;45.08;;;13.85;;
77944;SDS011;67142;47.404;-1.384;2023-03-30T04:57:29;34.42;;;13.00;;
77944;SDS011;67142;47.404;-1.384;2023-03-30T04:59:55;37.85;;;14.25;;
77944;SDS011;67142;47.404;-1.384;2023-03-30T05:02:21;37.97;;;13.35;;
77944;SDS011;67142;47.404;-1.384;2023-03-30T05:04:47;39.65;;;14.13;;
77944;SDS011;67142;47.404;-1.384;2023-03-30T05:07:13;38.87;;;13.27;;
77944;SDS011;67142;47.404;-1.384;2023-03-30T05:09:39;41.35;;;13.57;;
77944;SDS011;67142;47.404;-1.384;2023-03-30T05:12:05;38.28;;;14.10;;
77944;SDS011;67142;47.404;-1.384;2023-03-30T05:14:31;38.58;;;13.55;;
77944;SDS011;67142;47.404;-1.384;2023-03-30T05:16:57;50.67;;;14.25;;
77944;SDS011;67142;47.404;-1.384;2023-03-30T05:19:23;43.07;;;13.93;;
77944;SDS011;67142;47.404;-1.384;2023-03-30T05:21:49;39.03;;;14.90;;
77944;SDS011;67142;47.404;-1.384;2023-03-30T05:24:15;40.05;;;13.50;;
77944;SDS011;67142;47.404;-1.384;2023-03-30T05:26:41;39.00;;;12.88;;
77944;SDS011;67142;47.404;-1.384;2023-03-30T05:29:07;41.35;;;13.52;;
77944;SDS011;67142;47.404;-1.384;2023-03-30T05:31:34;39.15;;;14.75;;
77944;SDS011;67142;47.404;-1.384;2023-03-30T05:34:00;38.78;;;13.90;;
77944;SDS011;67142;47.404;-1.384;2023-03-30T05:36:26;43.28;;;15.55;;
77944;SDS011;67142;47.404;-1.384;2023-03-30T05:38:52;38.05;;;13.57;;
77944;SDS011;67142;47.404;-1.384;2023-03-30T05:41:18;36.65;;;13.82;;
77944;SDS011;67142;47.404;-1.384;2023-03-30T05:43:44;45.63;;;13.67;;
77944;SDS011;67142;47.404;-1.384;2023-03-30T05:46:11;41.25;;;15.00;;
77944;SDS011;67142;47.404;-1.384;2023-03-30T05:48:37;37.65;;;13.00;;
77944;SDS011;67142;47.404;-1.384;2023-03-30T05:51:03;42.72;;;14.73;;
77944;SDS011;67142;47.404;-1.384;2023-03-30T05:53:30;34.97;;;13.85;;
77944;SDS011;67142;47.404;-1.384;2023-03-30T05:55:56;37.37;;;13.60;;
77944;SDS011;67142;47.404;-1.384;2023-03-30T05:58:22;39.03;;;13.98;;
77944;SDS011;67142;47.404;-1.384;2023-03-30T06:00:48;42.58;;;14.45;;
77944;SDS011;67142;47.404;-1.384;2023-03-30T06:03:14;44.47;;;15.13;;
77944;SDS011;67142;47.404;-1.384;2023-03-30T06:05:40;50.95;;;26.33;;
77944;SDS011;67142;47.404;-1.384;2023-03-30T06:08:08;37.43;;;15.30;;
77944;SDS011;67142;47.404;-1.384;2023-03-30T06:10:34;34.85;;;13.98;;
77944;SDS011;67142;47.404;-1.384;2023-03-30T06:13:00;33.78;;;15.00;;
77944;SDS011;67142;47.404;-1.384;2023-03-30T06:15:26;37.60;;;14.45;;
77944;SDS011;67142;47.404;-1.384;2023-03-30T06:17:53;38.10;;;14.48;;
77944;SDS011;67142;47.404;-1.384;2023-03-30T06:20:19;35.03;;;15.67;;
77944;SDS011;67142;47.404;-1.384;2023-03-30T06:22:46;40.65;;;15.55;;
77944;SDS011;67142;47.404;-1.384;2023-03-30T06:25:12;31.05;;;14.82;;
77944;SDS011;67142;47.404;-1.384;2023-03-30T06:27:39;36.88;;;14.75;;
77944;SDS011;67142;47.404;-1.384;2023-03-30T06:30:06;38.90;;;14.77;;
77944;SDS011;67142;47.404;-1.384;2023-03-30T06:32:35;34.07;;;14.77;;
77944;SDS011;67142;47.404;-1.384;2023-03-30T06:35:01;34.38;;;15.63;;
77944;SDS011;67142;47.404;-1.384;2023-03-30T06:37:29;43.53;;;14.88;;
77944;SDS011;67142;47.404;-1.384;2023-03-30T06:39:55;37.67;;;15.20;;
77944;SDS011;67142;47.404;-1.384;2023-03-30T06:42:22;43.95;;;16.70;;
77944;SDS011;67142;47.404;-1.384;2023-03-30T06:44:48;39.97;;;15.60;;
77944;SDS011;67142;47.404;-1.384;2023-03-30T06:47:14;43.90;;;15.50;;
77944;SDS011;67142;47.404;-1.384;2023-03-30T06:49:40;46.38;;;15.77;;
77944;SDS011;67142;47.404;-1.384;2023-03-30T06:52:06;41.65;;;14.88;;
77944;SDS011;67142;47.404;-1.384;2023-03-30T06:54:32;43.00;;;16.03;;
77944;SDS011;67142;47.404;-1.384;2023-03-30T06:56:58;35.67;;;15.83;;
77944;SDS011;67142;47.404;-1.384;2023-03-30T06:59:25;46.33;;;15.70;;
77944;SDS011;67142;47.404;-1.384;2023-03-30T07:01:51;46.35;;;14.63;;
77944;SDS011;67142;47.404;-1.384;2023-03-30T07:04:17;43.20;;;14.60;;
77944;SDS011;67142;47.404;-1.384;2023-03-30T07:06:43;41.15;;;13.88;;
77944;SDS011;67142;47.404;-1.384;2023-03-30T07:09:09;44.70;;;15.20;;
77944;SDS011;67142;47.404;-1.384;2023-03-30T07:11:36;42.15;;;14.25;;
77944;SDS011;67142;47.404;-1.384;2023-03-30T07:14:02;39.20;;;14.02;;
77944;SDS011;67142;47.404;-1.384;2023-03-30T07:16:29;37.75;;;14.88;;
77944;SDS011;67142;47.404;-1.384;2023-03-30T07:18:55;36.45;;;15.40;;
77944;SDS011;67142;47.404;-1.384;2023-03-30T07:21:22;40.63;;;15.40;;
77944;SDS011;67142;47.404;-1.384;2023-03-30T07:23:48;43.17;;;15.57;;
77944;SDS011;67142;47.404;-1.384;2023-03-30T07:26:15;45.13;;;15.20;;
77944;SDS011;67142;47.404;-1.384;2023-03-30T07:28:41;36.17;;;15.23;;
77944;SDS011;67142;47.404;-1.384;2023-03-30T07:31:09;41.10;;;15.35;;
77944;SDS011;67142;47.404;-1.384;2023-03-30T07:33:37;43.07;;;15.93;;
77944;SDS011;67142;47.404;-1.384;2023-03-30T07:36:04;44.67;;;15.02;;
77944;SDS011;67142;47.404;-1.384;2023-03-30T07:38:30;42.10;;;15.77;;
77944;SDS011;67142;47.404;-1.384;2023-03-30T07:40:56;38.47;;;16.00;;
77944;SDS011;67142;47.404;-1.384;2023-03-30T07:43:22;43.30;;;15.73;;
77944;SDS011;67142;47.404;-1.384;2023-03-30T07:45:49;44.53;;;15.37;;
77944;SDS011;67142;47.404;-1.384;2023-03-30T07:48:15;43.83;;;16.42;;
77944;SDS011;67142;47.404;-1.384;2023-03-30T07:50:40;36.58;;;15.45;;
77944;SDS011;67142;47.404;-1.384;2023-03-30T07:53:06;36.97;;;15.90;;
77944;SDS011;67142;47.404;-1.384;2023-03-30T07:55:33;43.38;;;17.13;;
77944;SDS011;67142;47.404;-1.384;2023-03-30T07:57:58;38.07;;;15.40;;
77944;SDS011;67142;47.404;-1.384;2023-03-30T08:00:25;37.67;;;15.80;;
77944;SDS011;67142;47.404;-1.384;2023-03-30T08:02:51;40.17;;;16.92;;
77944;SDS011;67142;47.404;-1.384;2023-03-30T08:05:17;39.03;;;16.25;;
77944;SDS011;67142;47.404;-1.384;2023-03-30T08:07:43;43.85;;;17.70;;
77944;SDS011;67142;47.404;-1.384;2023-03-30T08:10:10;39.37;;;16.43;;
77944;SDS011;67142;47.404;-1.384;2023-03-30T08:12:36;45.17;;;15.60;;
77944;SDS011;67142;47.404;-1.384;2023-03-30T08:15:03;39.45;;;15.48;;
77944;SDS011;67142;47.404;-1.384;2023-03-30T08:17:29;38.50;;;15.45;;
77944;SDS011;67142;47.404;-1.384;2023-03-30T08:19:55;41.33;;;17.30;;
77944;SDS011;67142;47.404;-1.384;2023-03-30T08:22:21;42.63;;;15.47;;
77944;SDS011;67142;47.404;-1.384;2023-03-30T08:24:47;40.45;;;15.45;;
77944;SDS011;67142;47.404;-1.384;2023-03-30T08:27:13;34.60;;;16.10;;
77944;SDS011;67142;47.404;-1.384;2023-03-30T08:29:39;43.55;;;15.35;;
77944;SDS011;67142;47.404;-1.384;2023-03-30T08:32:06;39.30;;;16.50;;
77944;SDS011;67142;47.404;-1.384;2023-03-30T08:34:32;35.13;;;15.93;;
77944;SDS011;67142;47.404;-1.384;2023-03-30T08:36:58;35.53;;;16.75;;
77944;SDS011;67142;47.404;-1.384;2023-03-30T08:39:24;41.00;;;15.95;;
77944;SDS011;67142;47.404;-1.384;2023-03-30T08:41:59;37.42;;;16.42;;
77944;SDS011;67142;47.404;-1.384;2023-03-30T08:46:53;32.97;;;15.67;;
77944;SDS011;67142;47.404;-1.384;2023-03-30T08:49:19;39.30;;;16.70;;
77944;SDS011;67142;47.404;-1.384;2023-03-30T08:51:47;38.50;;;17.70;;
77944;SDS011;67142;47.404;-1.384;2023-03-30T08:54:14;37.47;;;17.30;;
77944;SDS011;67142;47.404;-1.384;2023-03-30T09:09:23;34.88;;;15.77;;
77944;SDS011;67142;47.404;-1.384;2023-03-30T09:11:52;34.20;;;16.03;;
77944;SDS011;67142;47.404;-1.384;2023-03-30T09:14:26;37.67;;;17.63;;
77944;SDS011;67142;47.404;-1.384;2023-03-30T09:16:55;33.40;;;15.50;;
77944;SDS011;67142;47.404;-1.384;2023-03-30T09:19:24;27.35;;;15.18;;
77944;SDS011;67142;47.404;-1.384;2023-03-30T09:21:52;38.83;;;15.43;;
77944;SDS011;67142;47.404;-1.384;2023-03-30T09:24:23;37.13;;;15.10;;
77944;SDS011;67142;47.404;-1.384;2023-03-30T09:29:42;32.25;;;15.48;;
77944;SDS011;67142;47.404;-1.384;2023-03-30T09:37:10;27.53;;;14.43;;
77944;SDS011;67142;47.404;-1.384;2023-03-30T09:39:37;33.65;;;15.68;;
77944;SDS011;67142;47.404;-1.384;2023-03-30T09:46:56;37.43;;;15.70;;
77944;SDS011;67142;47.404;-1.384;2023-03-30T09:49:23;35.17;;;15.60;;
77944;SDS011;67142;47.404;-1.384;2023-03-30T09:51:53;39.58;;;16.27;;
77944;SDS011;67142;47.404;-1.384;2023-03-30T09:54:20;36.22;;;15.45;;
77944;SDS011;67142;47.404;-1.384;2023-03-30T09:56:46;34.83;;;15.68;;
77944;SDS011;67142;47.404;-1.384;2023-03-30T09:59:34;35.72;;;15.82;;
77944;SDS011;67142;47.404;-1.384;2023-03-30T10:02:16;34.67;;;16.90;;
77944;SDS011;67142;47.404;-1.384;2023-03-30T10:07:21;34.40;;;16.83;;
77944;SDS011;67142;47.404;-1.384;2023-03-30T10:09:47;37.13;;;16.10;;
77944;SDS011;67142;47.404;-1.384;2023-03-30T10:12:13;33.97;;;17.35;;
77944;SDS011;67142;47.404;-1.384;2023-03-30T10:14:40;35.50;;;16.97;;
77944;SDS011;67142;47.404;-1.384;2023-03-30T10:17:06;43.05;;;16.02;;
77944;SDS011;67142;47.404;-1.384;2023-03-30T10:19:33;35.25;;;16.35;;
77944;SDS011;67142;47.404;-1.384;2023-03-30T10:21:59;38.40;;;16.85;;
77944;SDS011;67142;47.404;-1.384;2023-03-30T10:24:29;34.65;;;16.40;;
77944;SDS011;67142;47.404;-1.384;2023-03-30T10:26:56;35.40;;;16.90;;
77944;SDS011;67142;47.404;-1.384;2023-03-30T10:29:24;31.77;;;15.48;;
77944;SDS011;67142;47.404;-1.384;2023-03-30T10:31:58;33.33;;;16.45;;
77944;SDS011;67142;47.404;-1.384;2023-03-30T10:36:57;37.00;;;16.45;;
77944;SDS011;67142;47.404;-1.384;2023-03-30T10:39:24;27.70;;;16.03;;
77944;SDS011;67142;47.404;-1.384;2023-03-30T10:41:53;29.15;;;17.73;;
77944;SDS011;67142;47.404;-1.384;2023-03-30T10:44:32;37.58;;;16.67;;
77944;SDS011;67142;47.404;-1.384;2023-03-30T10:49:43;39.80;;;18.45;;
77944;SDS011;67142;47.404;-1.384;2023-03-30T10:52:25;30.87;;;17.60;;
77944;SDS011;67142;47.404;-1.384;2023-03-30T10:57:20;35.08;;;17.88;;
77944;SDS011;67142;47.404;-1.384;2023-03-30T11:09:57;32.63;;;19.67;;
77944;SDS011;67142;47.404;-1.384;2023-03-30T11:12:29;32.95;;;20.00;;
77944;SDS011;67142;47.404;-1.384;2023-03-30T11:14:59;33.70;;;19.60;;
77944;SDS011;67142;47.404;-1.384;2023-03-30T11:17:29;35.93;;;18.50;;
77944;SDS011;67142;47.404;-1.384;2023-03-30T11:19:56;33.33;;;19.75;;
77944;SDS011;67142;47.404;-1.384;2023-03-30T11:25:23;29.33;;;16.92;;
77944;SDS011;67142;47.404;-1.384;2023-03-30T11:28:02;32.58;;;19.48;;
77944;SDS011;67142;47.404;-1.384;2023-03-30T11:30:33;31.70;;;17.77;;
77944;SDS011;67142;47.404;-1.384;2023-03-30T11:33:21;26.90;;;18.75;;
77944;SDS011;67142;47.404;-1.384;2023-03-30T11:35:59;30.67;;;17.67;;
77944;SDS011;67142;47.404;-1.384;2023-03-30T11:38:48;32.28;;;17.98;;
77944;SDS011;67142;47.404;-1.384;2023-03-30T11:41:18;35.75;;;18.15;;
77944;SDS011;67142;47.404;-1.384;2023-03-30T11:43:47;34.13;;;17.40;;
77944;SDS011;67142;47.404;-1.384;2023-03-30T11:46:25;30.27;;;16.05;;
77944;SDS011;67142;47.404;-1.384;2023-03-30T11:53:51;31.20;;;17.73;;
77944;SDS011;67142;47.404;-1.384;2023-03-30T12:03:53;31.95;;;17.33;;
77944;SDS011;67142;47.404;-1.384;2023-03-30T12:06:37;35.40;;;19.35;;
77944;SDS011;67142;47.404;-1.384;2023-03-30T12:14:39;30.67;;;19.80;;
77944;SDS011;67142;47.404;-1.384;2023-03-30T12:19:40;35.78;;;20.17;;
77944;SDS011;67142;47.404;-1.384;2023-03-30T12:22:12;32.83;;;18.97;;
77944;SDS011;67142;47.404;-1.384;2023-03-30T12:25:13;31.15;;;18.52;;
77944;SDS011;67142;47.404;-1.384;2023-03-30T12:27:35;30.20;;;17.15;;
77944;SDS011;67142;47.404;-1.384;2023-03-30T12:30:12;31.60;;;17.30;;
77944;SDS011;67142;47.404;-1.384;2023-03-30T12:32:38;34.53;;;21.27;;
77944;SDS011;67142;47.404;-1.384;2023-03-30T12:35:44;32.80;;;20.10;;
77944;SDS011;67142;47.404;-1.384;2023-03-30T12:38:06;31.02;;;21.27;;
77944;SDS011;67142;47.404;-1.384;2023-03-30T12:40:33;29.55;;;21.90;;
77944;SDS011;67142;47.404;-1.384;2023-03-30T12:43:15;28.48;;;19.35;;
77944;SDS011;67142;47.404;-1.384;2023-03-30T12:45:51;30.85;;;17.85;;
77944;SDS011;67142;47.404;-1.384;2023-03-30T12:53:22;27.00;;;16.90;;
77944;SDS011;67142;47.404;-1.384;2023-03-30T12:55:53;25.92;;;16.23;;
77944;SDS011;67142;47.404;-1.384;2023-03-30T12:58:50;28.75;;;16.85;;
77944;SDS011;67142;47.404;-1.384;2023-03-30T13:04:04;30.30;;;17.98;;
77944;SDS011;67142;47.404;-1.384;2023-03-30T13:06:42;29.10;;;17.88;;
77944;SDS011;67142;47.404;-1.384;2023-03-30T13:14:38;31.67;;;17.40;;
77944;SDS011;67142;47.404;-1.384;2023-03-30T13:24:34;29.60;;;19.05;;
77944;SDS011;67142;47.404;-1.384;2023-03-30T13:29:35;33.30;;;18.25;;
77944;SDS011;67142;47.404;-1.384;2023-03-30T13:32:13;31.73;;;19.00;;
77944;SDS011;67142;47.404;-1.384;2023-03-30T13:40:00;29.80;;;18.87;;
77944;SDS011;67142;47.404;-1.384;2023-03-30T13:45:18;37.20;;;18.23;;
77944;SDS011;67142;47.404;-1.384;2023-03-30T13:50:28;30.40;;;18.70;;
77944;SDS011;67142;47.404;-1.384;2023-03-30T13:52:56;30.70;;;19.60;;
77944;SDS011;67142;47.404;-1.384;2023-03-30T13:57:50;30.35;;;23.15;;
77944;SDS011;67142;47.404;-1.384;2023-03-30T14:05:52;31.47;;;20.10;;
77944;SDS011;67142;47.404;-1.384;2023-03-30T14:08:18;33.40;;;21.05;;
77944;SDS011;67142;47.404;-1.384;2023-03-30T14:10:45;34.60;;;21.60;;
77944;SDS011;67142;47.404;-1.384;2023-03-30T14:13:12;29.77;;;18.73;;
77944;SDS011;67142;47.404;-1.384;2023-03-30T14:15:38;29.70;;;17.90;;
77944;SDS011;67142;47.404;-1.384;2023-03-30T14:18:04;31.33;;;18.47;;
77944;SDS011;67142;47.404;-1.384;2023-03-30T14:23:09;31.98;;;18.77;;
77944;SDS011;67142;47.404;-1.384;2023-03-30T14:25:38;32.88;;;18.48;;
77944;SDS011;67142;47.404;-1.384;2023-03-30T14:28:11;34.45;;;17.67;;
77944;SDS011;67142;47.404;-1.384;2023-03-30T14:30:38;35.83;;;18.93;;
77944;SDS011;67142;47.404;-1.384;2023-03-30T14:33:12;28.38;;;17.92;;
77944;SDS011;67142;47.404;-1.384;2023-03-30T14:36:12;30.50;;;17.77;;
77944;SDS011;67142;47.404;-1.384;2023-03-30T14:38:33;26.92;;;15.95;;
77944;SDS011;67142;47.404;-1.384;2023-03-30T14:41:23;32.72;;;15.93;;
77944;SDS011;67142;47.404;-1.384;2023-03-30T14:46:17;28.30;;;16.55;;
77944;SDS011;67142;47.404;-1.384;2023-03-30T14:48:43;33.42;;;17.58;;
77944;SDS011;67142;47.404;-1.384;2023-03-30T14:51:24;29.70;;;16.05;;
77944;SDS011;67142;47.404;-1.384;2023-03-30T14:53:51;35.05;;;16.55;;
77944;SDS011;67142;47.404;-1.384;2023-03-30T14:56:18;36.03;;;17.93;;
77944;SDS011;67142;47.404;-1.384;2023-03-30T14:58:45;37.70;;;16.48;;
77944;SDS011;67142;47.404;-1.384;2023-03-30T15:01:14;33.00;;;16.20;;
77944;SDS011;67142;47.404;-1.384;2023-03-30T15:03:41;34.00;;;16.30;;
77944;SDS011;67142;47.404;-1.384;2023-03-30T15:06:07;32.53;;;16.95;;
77944;SDS011;67142;47.404;-1.384;2023-03-30T15:08:37;30.87;;;16.97;;
77944;SDS011;67142;47.404;-1.384;2023-03-30T15:11:08;39.17;;;17.92;;
77944;SDS011;67142;47.404;-1.384;2023-03-30T15:13:40;29.83;;;16.75;;
77944;SDS011;67142;47.404;-1.384;2023-03-30T15:16:07;32.25;;;16.23;;
77944;SDS011;67142;47.404;-1.384;2023-03-30T15:18:37;33.17;;;18.67;;
77944;SDS011;67142;47.404;-1.384;2023-03-30T15:21:03;30.80;;;16.47;;
77944;SDS011;67142;47.404;-1.384;2023-03-30T15:23:33;26.90;;;16.25;;
77944;SDS011;67142;47.404;-1.384;2023-03-30T15:26:00;28.40;;;17.45;;
77944;SDS011;67142;47.404;-1.384;2023-03-30T15:28:29;34.40;;;16.60;;
77944;SDS011;67142;47.404;-1.384;2023-03-30T15:30:56;39.15;;;16.70;;
77944;SDS011;67142;47.404;-1.384;2023-03-30T15:33:39;33.60;;;17.47;;
77944;SDS011;67142;47.404;-1.384;2023-03-30T15:36:09;33.45;;;18.13;;
77944;SDS011;67142;47.404;-1.384;2023-03-30T15:38:40;32.58;;;16.55;;
77944;SDS011;67142;47.404;-1.384;2023-03-30T15:41:08;30.17;;;16.92;;
77944;SDS011;67142;47.404;-1.384;2023-03-30T15:43:35;33.28;;;17.77;;
77944;SDS011;67142;47.404;-1.384;2023-03-30T15:46:06;31.83;;;16.50;;
77944;SDS011;67142;47.404;-1.384;2023-03-30T15:48:38;33.30;;;17.33;;
77944;SDS011;67142;47.404;-1.384;2023-03-30T15:51:07;22.75;;;15.05;;
77944;SDS011;67142;47.404;-1.384;2023-03-30T15:53:35;27.83;;;15.25;;
77944;SDS011;67142;47.404;-1.384;2023-03-30T15:56:04;30.77;;;16.38;;
77944;SDS011;67142;47.404;-1.384;2023-03-30T15:58:32;28.07;;;15.97;;
77944;SDS011;67142;47.404;-1.384;2023-03-30T16:00:58;31.38;;;17.60;;
77944;SDS011;67142;47.404;-1.384;2023-03-30T16:03:32;34.13;;;17.15;;
77944;SDS011;67142;47.404;-1.384;2023-03-30T16:05:58;26.10;;;15.68;;
77944;SDS011;67142;47.404;-1.384;2023-03-30T16:08:24;30.42;;;15.82;;
77944;SDS011;67142;47.404;-1.384;2023-03-30T16:10:50;29.83;;;17.07;;
77944;SDS011;67142;47.404;-1.384;2023-03-30T16:13:16;30.30;;;17.33;;
77944;SDS011;67142;47.404;-1.384;2023-03-30T16:15:42;33.53;;;16.17;;
77944;SDS011;67142;47.404;-1.384;2023-03-30T16:18:11;30.90;;;16.25;;
77944;SDS011;67142;47.404;-1.384;2023-03-30T16:20:38;28.05;;;16.13;;
77944;SDS011;67142;47.404;-1.384;2023-03-30T16:23:04;30.60;;;16.23;;
77944;SDS011;67142;47.404;-1.384;2023-03-30T16:25:32;30.45;;;15.75;;
77944;SDS011;67142;47.404;-1.384;2023-03-30T16:27:58;26.95;;;15.80;;
77944;SDS011;67142;47.404;-1.384;2023-03-30T16:30:25;33.10;;;15.95;;
77944;SDS011;67142;47.404;-1.384;2023-03-30T16:32:53;27.33;;;15.73;;
77944;SDS011;67142;47.404;-1.384;2023-03-30T16:35:19;37.13;;;16.60;;
77944;SDS011;67142;47.404;-1.384;2023-03-30T16:37:46;28.23;;;15.13;;
77944;SDS011;67142;47.404;-1.384;2023-03-30T16:42:38;32.42;;;16.00;;
77944;SDS011;67142;47.404;-1.384;2023-03-30T16:45:04;30.77;;;14.80;;
77944;SDS011;67142;47.404;-1.384;2023-03-30T16:47:31;22.13;;;14.37;;
77944;SDS011;67142;47.404;-1.384;2023-03-30T16:49:57;28.95;;;14.90;;
77944;SDS011;67142;47.404;-1.384;2023-03-30T16:52:24;30.92;;;14.50;;
77944;SDS011;67142;47.404;-1.384;2023-03-30T16:54:50;29.58;;;14.30;;
77944;SDS011;67142;47.404;-1.384;2023-03-30T16:57:16;25.58;;;14.40;;
77944;SDS011;67142;47.404;-1.384;2023-03-30T16:59:42;28.77;;;15.13;;